Time;durP1;ratioP1;P1;durP2;ratioP2;P2;SDS_P1;SDS_P2;PMS_P1;PMS_P2;Temp;Humidity;BMP_temperature;BMP_pressure;BME280_temperature;BME280_humidity;BME280_pressure;Samples;Min_cycle;Max_cycle;Signal;HPM_P1;HPM_P2
2022/05/24 00:01:56;;;;;;;4.70;1.70;;;19.50;99.90;;;;;;6182866;23;20477;-92
2022/05/24 00:07:17;;;;;;;1.50;1.27;;;19.30;99.90;;;;;;6166511;23;20483;-93
2022/05/24 00:09:52;;;;;;;3.20;1.07;;;19.30;99.90;;;;;;6163877;23;20881;-93
2022/05/24 00:12:29;;;;;;;1.87;1.23;;;19.20;99.90;;;;;;6160495;23;20463;-92
2022/05/24 00:17:58;;;;;;;4.60;1.70;;;19.10;99.90;;;;;;6160066;23;20923;-93
2022/05/24 00:20:34;;;;;;;1.70;1.30;;;19.00;99.90;;;;;;6165690;23;20420;-93
2022/05/24 00:23:12;;;;;;;1.87;1.10;;;19.00;99.90;;;;;;6164989;23;20434;-93
2022/05/24 00:25:48;;;;;;;1.40;1.30;;;18.80;99.90;;;;;;6179253;23;20435;-93
2022/05/24 00:28:25;;;;;;;1.57;1.30;;;18.80;99.90;;;;;;6168976;23;20403;-93
2022/05/24 00:30:55;;;;;;;2.37;1.40;;;18.80;99.90;;;;;;6159531;23;20463;-93
2022/05/24 00:33:34;;;;;;;2.70;1.50;;;18.80;99.90;;;;;;6159859;23;20528;-92
2022/05/24 00:36:05;;;;;;;2.10;1.83;;;18.70;99.90;;;;;;6181181;23;20430;-92
2022/05/24 00:38:38;;;;;;;1.70;1.50;;;18.60;99.90;;;;;;6172897;23;20411;-92
2022/05/24 00:41:25;;;;;;;2.27;1.90;;;18.40;99.90;;;;;;6158591;23;20415;-92
2022/05/24 00:46:46;;;;;;;2.33;2.00;;;18.10;99.90;;;;;;6156655;23;20427;-92
2022/05/24 00:49:22;;;;;;;2.10;1.77;;;18.00;99.90;;;;;;6175332;23;20485;-93
2022/05/24 00:51:59;;;;;;;2.50;1.70;;;17.90;99.90;;;;;;6178736;23;20395;-92
2022/05/24 00:54:33;;;;;;;2.67;1.50;;;17.90;99.90;;;;;;6164399;23;20417;-92
2022/05/24 00:57:06;;;;;;;3.73;3.23;;;17.90;99.90;;;;;;6160750;23;20446;-92
2022/05/24 00:59:41;;;;;;;1.50;1.40;;;17.90;99.90;;;;;;6163189;23;20445;-92
2022/05/24 01:02:18;;;;;;;1.80;1.67;;;18.00;99.90;;;;;;6173979;23;20395;-92
2022/05/24 01:04:52;;;;;;;1.67;1.53;;;18.00;99.90;;;;;;6175548;23;20412;-93
2022/05/24 01:10:22;;;;;;;2.50;1.40;;;18.10;99.90;;;;;;6173754;23;20398;-92
2022/05/24 01:12:56;;;;;;;3.00;1.87;;;18.20;99.90;;;;;;6162942;23;20435;-92
2022/05/24 01:15:23;;;;;;;2.07;1.73;;;18.20;99.90;;;;;;6163473;23;20433;-92
2022/05/24 01:17:56;;;;;;;2.90;1.87;;;18.20;99.90;;;;;;6161983;23;20414;-92
2022/05/24 01:20:24;;;;;;;3.37;1.60;;;18.10;99.90;;;;;;6162866;23;20415;-93
2022/05/24 01:23:20;;;;;;;2.73;1.60;;;18.10;99.90;;;;;;6161769;23;20411;-93
2022/05/24 01:26:05;;;;;;;2.23;1.67;;;18.20;99.90;;;;;;6162828;23;20486;-93
2022/05/24 01:28:46;;;;;;;2.17;1.97;;;18.20;99.90;;;;;;6165707;23;20426;-92
2022/05/24 01:31:23;;;;;;;2.13;1.73;;;18.20;99.90;;;;;;6167272;23;20736;-93
2022/05/24 01:36:45;;;;;;;2.20;2.00;;;18.20;99.90;;;;;;6185589;23;20420;-94
2022/05/24 01:39:20;;;;;;;2.83;1.80;;;18.20;99.90;;;;;;6178000;23;20431;-91
2022/05/24 01:42:08;;;;;;;1.87;1.73;;;18.10;99.90;;;;;;6166482;23;20422;-92
2022/05/24 01:44:48;;;;;;;2.93;1.90;;;18.10;99.90;;;;;;6177303;23;20399;-92
2022/05/24 01:47:31;;;;;;;1.70;1.50;;;18.10;99.90;;;;;;6184514;23;20394;-92
2022/05/24 01:50:06;;;;;;;2.23;2.03;;;18.10;99.90;;;;;;6168456;23;20423;-92
2022/05/24 01:52:41;;;;;;;3.70;1.97;;;18.20;99.90;;;;;;6182790;23;20493;-92
2022/05/24 01:55:19;;;;;;;2.33;2.13;;;18.20;99.90;;;;;;6166319;23;20454;-92
2022/05/24 01:57:54;;;;;;;2.40;2.20;;;18.20;99.90;;;;;;6164065;23;20423;-92
2022/05/24 02:01:01;;;;;;;3.20;2.67;;;18.20;99.90;;;;;;6180131;23;20432;-92
2022/05/24 02:03:31;;;;;;;2.00;1.70;;;18.10;99.90;;;;;;6163399;23;20444;-91
2022/05/24 02:06:16;;;;;;;3.47;2.10;;;18.00;99.90;;;;;;6167574;23;20407;-91
2022/05/24 02:08:58;;;;;;;2.40;2.13;;;17.80;99.90;;;;;;6183756;23;20422;-92
2022/05/24 02:11:32;;;;;;;2.20;1.80;;;17.80;99.90;;;;;;6167223;23;20471;-93
2022/05/24 02:14:13;;;;;;;2.27;2.07;;;17.80;99.90;;;;;;6160651;23;20515;-92
2022/05/24 02:16:48;;;;;;;2.10;1.83;;;17.70;99.90;;;;;;6182257;23;20418;-93
2022/05/24 02:19:19;;;;;;;1.97;1.80;;;17.70;99.90;;;;;;6168161;23;20470;-92
2022/05/24 02:21:54;;;;;;;2.27;2.07;;;17.60;99.90;;;;;;6161176;23;20726;-92
2022/05/24 02:24:29;;;;;;;3.30;2.37;;;17.70;99.90;;;;;;6160567;23;20458;-92
2022/05/24 02:27:05;;;;;;;3.20;2.17;;;17.70;99.90;;;;;;6161299;23;20442;-91
2022/05/24 02:32:35;;;;;;;3.33;2.30;;;17.70;99.90;;;;;;6163839;23;20418;-92
2022/05/24 02:35:13;;;;;;;2.57;1.83;;;17.70;99.90;;;;;;6181816;23;20440;-91
2022/05/24 02:37:51;;;;;;;1.70;1.60;;;17.60;99.90;;;;;;6170648;23;20391;-91
2022/05/24 02:43:19;;;;;;;2.57;1.80;;;17.50;99.90;;;;;;6172468;23;20378;-92
2022/05/24 02:45:51;;;;;;;2.07;1.73;;;17.50;99.90;;;;;;6174606;23;20457;-92
2022/05/24 02:48:28;;;;;;;8.53;2.03;;;17.40;99.90;;;;;;6175383;23;20417;-91
2022/05/24 02:51:00;;;;;;;2.10;1.90;;;17.40;99.90;;;;;;6181977;23;20435;-93
2022/05/24 02:56:16;;;;;;;2.37;1.80;;;17.40;99.90;;;;;;6171787;23;20427;-92
2022/05/24 02:58:53;;;;;;;2.40;2.20;;;17.40;99.90;;;;;;6164842;23;20410;-93
2022/05/24 03:01:34;;;;;;;2.57;2.27;;;17.30;99.90;;;;;;6168034;23;20431;-92
2022/05/24 03:04:18;;;;;;;2.07;1.70;;;17.30;99.90;;;;;;6164325;23;20406;-92
2022/05/24 03:09:44;;;;;;;2.67;2.43;;;17.40;99.90;;;;;;6163268;23;20377;-92
2022/05/24 03:15:05;;;;;;;3.10;2.30;;;17.40;99.90;;;;;;6164663;23;20870;-91
2022/05/24 03:17:51;;;;;;;2.57;2.37;;;17.40;99.90;;;;;;6166686;23;20386;-93
2022/05/24 03:20:22;;;;;;;3.60;2.97;;;17.40;99.90;;;;;;6172011;23;20402;-93
2022/05/24 03:22:55;;;;;;;2.20;1.90;;;17.50;99.90;;;;;;6163852;23;20411;-92
2022/05/24 03:25:32;;;;;;;2.90;1.93;;;17.40;99.90;;;;;;6162717;23;20439;-93
2022/05/24 03:28:09;;;;;;;3.73;2.40;;;17.40;99.90;;;;;;6163679;23;20407;-92
2022/05/24 03:30:52;;;;;;;2.30;2.10;;;17.40;99.90;;;;;;6169998;23;20450;-89
2022/05/24 03:33:25;;;;;;;2.10;1.90;;;17.40;99.90;;;;;;6183299;23;20485;-89
2022/05/24 03:36:03;;;;;;;2.10;1.90;;;17.40;99.90;;;;;;6173777;23;20439;-92
2022/05/24 03:38:34;;;;;;;2.60;2.30;;;17.40;99.90;;;;;;6170757;23;20403;-92
2022/05/24 03:41:10;;;;;;;3.17;2.13;;;17.40;99.90;;;;;;6165687;23;20415;-91
2022/05/24 03:43:46;;;;;;;3.30;1.70;;;17.50;99.90;;;;;;6163555;23;20873;-92
2022/05/24 03:46:19;;;;;;;3.30;2.07;;;17.50;99.90;;;;;;6164974;23;20434;-91
2022/05/24 03:48:54;;;;;;;4.40;2.20;;;17.50;99.90;;;;;;6169481;23;20407;-93
2022/05/24 03:54:09;;;;;;;2.53;2.33;;;17.50;99.90;;;;;;6163733;23;20928;-91
2022/05/24 03:57:59;;;;;;;2.87;2.63;;;17.50;99.90;;;;;;6181402;23;20418;-89
2022/05/24 03:59:34;;;;;;;2.30;2.10;;;17.50;99.90;;;;;;6183809;23;20398;-90
2022/05/24 04:02:14;;;;;;;2.50;2.30;;;17.50;99.90;;;;;;6183425;23;20399;-90
2022/05/24 04:04:41;;;;;;;2.30;2.07;;;17.60;99.90;;;;;;6182946;23;20436;-90
2022/05/24 04:07:09;;;;;;;2.70;2.50;;;17.60;99.90;;;;;;6178724;23;20458;-90
2022/05/24 04:09:36;;;;;;;2.87;2.50;;;17.60;99.90;;;;;;6184128;23;20447;-92
2022/05/24 04:12:04;;;;;;;4.63;2.93;;;17.60;99.90;;;;;;6183978;23;20390;-90
2022/05/24 04:14:32;;;;;;;2.40;2.20;;;17.70;99.90;;;;;;6183824;23;20417;-90
2022/05/24 04:16:59;;;;;;;4.07;3.53;;;17.70;99.90;;;;;;6183759;23;20420;-89
2022/05/24 04:19:26;;;;;;;5.27;2.47;;;17.70;99.90;;;;;;6183183;23;20388;-89
2022/05/24 04:21:53;;;;;;;5.50;2.97;;;17.70;99.90;;;;;;6182955;23;20419;-90
2022/05/24 04:24:22;;;;;;;3.40;2.63;;;17.60;99.90;;;;;;6182918;23;20406;-90
2022/05/24 04:26:49;;;;;;;3.33;2.57;;;17.60;99.90;;;;;;6176695;23;20495;-92
2022/05/24 04:29:16;;;;;;;3.63;2.23;;;17.70;99.90;;;;;;6168327;23;20461;-92
2022/05/24 04:31:43;;;;;;;6.07;3.20;;;17.70;99.90;;;;;;6172890;23;20407;-90
2022/05/24 04:34:10;;;;;;;2.67;2.37;;;17.80;99.90;;;;;;6176268;23;20501;-92
2022/05/24 04:36:36;;;;;;;4.97;2.90;;;17.80;99.90;;;;;;6161590;23;20421;-93
2022/05/24 04:39:04;;;;;;;6.20;2.90;;;17.80;99.90;;;;;;6160282;23;20407;-92
2022/05/24 04:44:16;;;;;;;5.17;3.37;;;17.90;99.90;;;;;;6165880;23;20374;-92
2022/05/24 04:49:27;;;;;;;7.30;4.93;;;17.90;99.90;;;;;;6164775;23;20406;-91
2022/05/24 04:51:54;;;;;;;4.33;2.90;;;18.00;99.90;;;;;;6167688;23;20426;-93
2022/05/24 04:54:35;;;;;;;3.70;2.73;;;17.90;99.90;;;;;;6169886;23;20539;-93
2022/05/24 04:57:25;;;;;;;5.40;2.60;;;17.90;99.90;;;;;;6163690;23;20430;-93
2022/05/24 05:00:23;;;;;;;2.67;2.30;;;17.90;99.90;;;;;;6175926;23;20408;-91
2022/05/24 05:03:22;;;;;;;5.10;3.13;;;17.90;99.90;;;;;;6148754;23;20487;-91
2022/05/24 05:06:04;;;;;;;6.87;3.20;;;18.00;99.90;;;;;;6164193;23;20428;-91
2022/05/24 05:09:16;;;;;;;;;;;;;;;;;;;;;
2022/05/24 05:12:26;;;;;;;10.40;3.70;;;18.00;99.90;;;;;;6159398;23;20443;-91
2022/05/24 05:15:34;;;;;;;5.10;2.47;;;18.20;99.90;;;;;;6164010;23;20496;-92
2022/05/24 05:18:34;;;;;;;2.20;1.67;;;18.30;99.90;;;;;;6016505;23;20436;-92
2022/05/24 05:21:19;;;;;;;2.10;1.73;;;18.30;99.90;;;;;;6165917;23;20407;-91
2022/05/24 05:24:39;;;;;;;3.10;1.97;;;18.50;99.90;;;;;;6162484;23;20412;-92
2022/05/24 05:27:22;;;;;;;2.50;1.80;;;18.50;99.90;;;;;;6027982;23;20427;-91
2022/05/24 05:33:39;;;;;;;3.40;2.10;;;18.50;99.90;;;;;;6137783;23;20450;-92
2022/05/24 05:36:56;;;;;;;5.23;2.20;;;18.40;99.90;;;;;;6181011;23;20423;-92
2022/05/24 05:42:21;;;;;;;1.70;1.47;;;18.50;99.90;;;;;;6170521;23;20494;-93
2022/05/24 05:44:48;;;;;;;5.07;2.70;;;18.60;99.90;;;;;;6161334;23;20412;-82
2022/05/24 05:47:16;;;;;;;6.10;1.93;;;18.70;99.90;;;;;;6159749;23;20404;-82
2022/05/24 05:49:45;;;;;;;2.27;1.73;;;18.80;99.90;;;;;;6157196;23;20403;-81
2022/05/24 05:52:12;;;;;;;3.97;1.90;;;18.90;99.90;;;;;;6158404;23;20974;-82
2022/05/24 05:54:38;;;;;;;2.20;1.43;;;19.00;99.90;;;;;;6157585;23;20447;-79
2022/05/24 05:57:06;;;;;;;2.87;1.57;;;19.20;99.90;;;;;;6156648;23;20900;-79
2022/05/24 05:59:33;;;;;;;2.67;1.67;;;19.40;99.90;;;;;;6157040;23;20411;-82
2022/05/24 06:02:01;;;;;;;4.93;1.80;;;19.40;99.90;;;;;;6157453;23;20410;-82
2022/05/24 06:04:27;;;;;;;4.17;1.47;;;19.40;99.90;;;;;;6158796;23;20472;-80
2022/05/24 06:06:56;;;;;;;4.40;1.70;;;19.40;99.90;;;;;;6158336;23;20450;-82
2022/05/24 06:09:24;;;;;;;3.60;1.83;;;19.40;99.90;;;;;;6157194;23;20479;-81
2022/05/24 06:11:59;;;;;;;4.27;1.30;;;19.60;99.90;;;;;;6156972;23;20414;-80
2022/05/24 06:14:26;;;;;;;3.73;1.60;;;19.70;99.90;;;;;;6157873;23;20427;-82
2022/05/24 06:16:52;;;;;;;4.60;1.57;;;19.90;99.90;;;;;;6158914;23;20430;-80
2022/05/24 06:19:19;;;;;;;2.33;1.53;;;20.00;99.90;;;;;;6158412;23;20416;-82
2022/05/24 06:21:46;;;;;;;2.13;1.50;;;19.80;99.90;;;;;;6158553;23;20416;-82
2022/05/24 06:24:15;;;;;;;2.60;1.70;;;19.80;99.80;;;;;;6158773;23;20982;-81
2022/05/24 06:26:43;;;;;;;3.93;1.77;;;19.90;99.90;;;;;;6170581;23;20419;-80
2022/05/24 06:29:09;;;;;;;4.87;1.80;;;19.80;99.90;;;;;;6170631;23;20505;-82
2022/05/24 06:31:36;;;;;;;3.80;1.73;;;19.60;99.30;;;;;;6162779;23;20417;-81
2022/05/24 06:34:03;;;;;;;1.90;1.50;;;19.60;99.60;;;;;;6176650;23;20425;-80
2022/05/24 06:36:30;;;;;;;3.20;1.80;;;19.50;99.90;;;;;;6178178;23;20903;-81
2022/05/24 06:38:56;;;;;;;4.33;2.00;;;19.50;99.90;;;;;;6173252;23;20410;-79
2022/05/24 06:41:24;;;;;;;2.50;1.47;;;19.50;99.90;;;;;;6176735;23;20400;-81
2022/05/24 06:43:51;;;;;;;3.10;1.40;;;19.40;99.20;;;;;;6163466;23;20408;-82
2022/05/24 06:46:18;;;;;;;3.60;1.43;;;19.40;99.10;;;;;;6159999;23;20437;-81
2022/05/24 06:48:45;;;;;;;2.30;1.73;;;19.40;99.10;;;;;;6157394;23;20411;-81
2022/05/24 06:51:14;;;;;;;2.83;1.47;;;19.40;99.10;;;;;;6167062;23;20413;-81
2022/05/24 06:53:43;;;;;;;2.73;1.47;;;19.40;99.10;;;;;;6156156;23;20440;-80
2022/05/24 06:56:10;;;;;;;2.60;1.53;;;19.30;98.80;;;;;;6156202;23;20437;-81
2022/05/24 06:58:39;;;;;;;1.97;1.20;;;19.20;98.80;;;;;;6163093;23;20410;-81
2022/05/24 07:03:53;;;;;;;5.27;1.70;;;19.10;99.30;;;;;;6160102;23;20417;-80
2022/05/24 07:06:20;;;;;;;2.40;1.67;;;19.20;99.60;;;;;;6162158;23;20425;-81
2022/05/24 07:08:49;;;;;;;2.57;1.60;;;19.20;99.60;;;;;;6161937;23;20406;-80
2022/05/24 07:11:20;;;;;;;3.20;1.30;;;19.30;99.60;;;;;;6162338;23;20415;-82
2022/05/24 07:13:48;;;;;;;3.70;0.93;;;19.00;97.40;;;;;;6163558;23;20466;-90
2022/05/24 07:16:15;;;;;;;4.17;1.80;;;17.90;99.90;;;;;;6162741;23;20585;-90
2022/05/24 07:18:42;;;;;;;1.87;0.80;;;16.80;99.90;;;;;;6159482;23;20482;-85
2022/05/24 07:21:09;;;;;;;3.57;1.30;;;16.10;99.90;;;;;;6162410;23;20396;-86
2022/05/24 07:23:37;;;;;;;5.87;1.00;;;15.70;99.90;;;;;;6162824;23;20403;-87
2022/05/24 07:26:13;;;;;;;1.90;1.03;;;15.50;99.90;;;;;;6161255;23;20437;-84
2022/05/24 07:28:40;;;;;;;3.00;1.20;;;15.30;99.90;;;;;;6162182;23;20433;-85
2022/05/24 07:31:08;;;;;;;3.00;1.30;;;15.20;99.90;;;;;;6163112;23;20429;-85
2022/05/24 07:33:36;;;;;;;4.20;1.13;;;15.20;99.90;;;;;;6161868;23;20890;-85
2022/05/24 07:36:03;;;;;;;6.37;1.43;;;15.10;99.90;;;;;;6161480;23;20529;-84
2022/05/24 07:38:30;;;;;;;1.33;0.80;;;15.00;99.90;;;;;;6159951;23;20886;-83
2022/05/24 07:46:26;;;;;;;2.60;1.13;;;15.10;99.90;;;;;;6160541;23;20417;-85
2022/05/24 07:48:54;;;;;;;3.20;1.30;;;15.40;99.90;;;;;;6163269;23;20402;-85
2022/05/24 07:51:20;;;;;;;9.40;2.00;;;15.30;99.90;;;;;;6169672;23;20435;-84
2022/05/24 07:53:47;;;;;;;1.90;1.10;;;15.40;99.90;;;;;;6176983;23;20417;-83
2022/05/24 07:56:15;;;;;;;2.90;1.00;;;15.60;99.90;;;;;;6166968;23;20929;-85
2022/05/24 07:58:43;;;;;;;2.83;1.20;;;15.60;99.90;;;;;;6161876;23;20438;-85
2022/05/24 08:01:10;;;;;;;3.20;1.27;;;15.70;99.90;;;;;;6162015;23;20912;-85
2022/05/24 08:03:39;;;;;;;2.87;1.50;;;15.80;99.90;;;;;;6159940;23;20442;-86
2022/05/24 08:06:06;;;;;;;4.20;1.40;;;16.00;99.90;;;;;;6160087;23;20745;-84
2022/05/24 08:08:34;;;;;;;3.53;1.33;;;16.30;99.90;;;;;;6159214;23;20407;-85
2022/05/24 08:11:01;;;;;;;2.03;0.87;;;17.10;99.90;;;;;;6160184;23;20414;-84
2022/05/24 08:13:28;;;;;;;1.97;1.10;;;17.70;99.90;;;;;;6159085;23;20413;-85
2022/05/24 08:15:56;;;;;;;2.70;1.23;;;18.20;99.90;;;;;;6160203;23;20457;-86
2022/05/24 08:18:24;;;;;;;3.03;0.80;;;18.60;99.90;;;;;;6160197;23;20490;-85
2022/05/24 08:20:53;;;;;;;1.60;0.80;;;18.50;99.90;;;;;;6171085;23;20407;-85
2022/05/24 08:23:21;;;;;;;3.00;1.60;;;18.40;99.90;;;;;;6166869;23;20411;-89
2022/05/24 08:25:48;;;;;;;3.60;1.30;;;18.70;99.90;;;;;;6165367;23;20435;-84
2022/05/24 08:28:15;;;;;;;2.10;1.07;;;18.80;99.90;;;;;;6161642;23;20988;-86
2022/05/24 08:30:43;;;;;;;2.13;0.97;;;18.90;99.90;;;;;;6160654;23;20433;-84
2022/05/24 08:33:12;;;;;;;3.30;1.63;;;19.10;99.90;;;;;;6160920;23;20418;-86
2022/05/24 08:35:40;;;;;;;1.83;0.70;;;19.00;99.90;;;;;;6160406;23;21046;-85
2022/05/24 08:38:09;;;;;;;3.00;1.20;;;18.80;99.90;;;;;;6162510;23;20518;-85
2022/05/24 08:40:38;;;;;;;1.23;0.87;;;18.80;99.90;;;;;;6162609;23;20381;-85
2022/05/24 08:43:28;;;;;;;1.10;0.90;;;18.80;99.90;;;;;;6162383;23;20436;-85
2022/05/24 08:48:47;;;;;;;1.50;0.80;;;18.90;99.90;;;;;;6161386;23;20373;-85
2022/05/24 08:51:21;;;;;;;1.20;0.80;;;19.00;99.90;;;;;;6161537;23;20377;-86
2022/05/24 08:53:53;;;;;;;1.30;0.90;;;19.10;99.20;;;;;;6160727;23;20385;-86
2022/05/24 08:56:25;;;;;;;2.90;0.83;;;19.30;99.90;;;;;;6161636;23;20421;-85
2022/05/24 08:58:57;;;;;;;3.00;1.20;;;19.40;97.90;;;;;;6173285;23;20418;-81
2022/05/24 09:01:27;;;;;;;2.80;1.00;;;19.50;98.40;;;;;;6175643;23;20400;-81
2022/05/24 09:03:53;;;;;;;2.10;0.80;;;19.80;96.80;;;;;;6173994;23;20377;-80
2022/05/24 09:06:34;;;;;;;1.47;0.80;;;19.70;96.20;;;;;;6179325;23;20432;-81
2022/05/24 09:09:17;;;;;;;1.40;0.70;;;19.60;94.40;;;;;;6177572;23;20394;-81
2022/05/24 09:11:54;;;;;;;2.93;1.30;;;20.10;94.70;;;;;;6161208;23;20398;-81
2022/05/24 09:14:29;;;;;;;1.30;0.83;;;20.60;93.70;;;;;;6160213;23;20437;-81
2022/05/24 09:17:05;;;;;;;1.90;1.13;;;20.70;92.40;;;;;;6159046;23;20410;-81
2022/05/24 09:19:35;;;;;;;2.60;0.90;;;20.70;92.00;;;;;;6159883;23;20414;-81
2022/05/24 09:22:03;;;;;;;2.30;0.90;;;20.50;91.10;;;;;;6165042;23;20452;-80
2022/05/24 09:24:42;;;;;;;1.33;0.83;;;20.20;90.70;;;;;;6163335;23;20402;-81
2022/05/24 09:27:14;;;;;;;1.97;1.00;;;20.80;91.90;;;;;;6160106;23;20862;-81
2022/05/24 09:29:57;;;;;;;1.47;0.60;;;21.70;90.00;;;;;;6158964;23;20404;-81
2022/05/24 09:32:31;;;;;;;1.70;0.77;;;21.80;87.10;;;;;;6157689;23;20420;-81
2022/05/24 09:35:06;;;;;;;3.13;1.00;;;21.70;86.50;;;;;;6159391;23;20439;-79
2022/05/24 09:37:32;;;;;;;1.80;0.90;;;21.80;87.10;;;;;;6162336;23;20402;-80
2022/05/24 09:40:06;;;;;;;1.40;1.10;;;22.20;85.70;;;;;;6166346;23;20409;-81
2022/05/24 09:42:36;;;;;;;2.10;1.00;;;22.80;82.80;;;;;;6160529;23;20393;-81
2022/05/24 09:45:10;;;;;;;1.70;1.00;;;22.80;79.00;;;;;;6158900;23;20441;-81
2022/05/24 09:47:51;;;;;;;1.60;0.80;;;22.50;77.50;;;;;;6172421;23;20419;-81
2022/05/24 09:50:21;;;;;;;2.10;0.70;;;22.30;78.80;;;;;;6174886;23;20396;-81
2022/05/24 09:53:13;;;;;;;2.20;0.60;;;22.10;78.20;;;;;;6164015;23;20403;-80
2022/05/24 09:55:45;;;;;;;1.70;0.73;;;24.00;73.70;;;;;;6162559;23;20458;-82
2022/05/24 09:58:28;;;;;;;2.47;1.53;;;26.90;64.40;;;;;;6162717;23;20782;-81
2022/05/24 10:00:59;;;;;;;1.87;1.10;;;29.40;57.00;;;;;;6170320;23;20390;-81
2022/05/24 10:03:30;;;;;;;2.30;0.70;;;30.50;52.70;;;;;;6180817;23;20417;-81
2022/05/24 10:06:10;;;;;;;2.20;0.90;;;31.40;52.20;;;;;;6184006;23;20429;-81
2022/05/24 10:08:48;;;;;;;2.23;0.90;;;32.70;48.40;;;;;;6183632;23;20395;-80
2022/05/24 10:11:32;;;;;;;1.37;0.97;;;31.30;47.80;;;;;;6174387;23;20390;-81
2022/05/24 10:14:12;;;;;;;1.73;1.40;;;31.90;47.00;;;;;;6182632;23;20403;-79
2022/05/24 10:16:45;;;;;;;1.97;1.30;;;31.40;46.30;;;;;;6183981;23;20436;-80
2022/05/24 10:19:39;;;;;;;1.40;0.73;;;31.00;46.70;;;;;;6183434;23;20379;-80
2022/05/24 10:22:18;;;;;;;2.10;0.90;;;31.30;45.50;;;;;;6182943;23;20438;-79
2022/05/24 10:25:03;;;;;;;2.60;1.60;;;29.40;47.00;;;;;;6181883;23;20401;-79
2022/05/24 10:27:37;;;;;;;2.20;1.10;;;27.80;47.40;;;;;;6176469;23;20442;-82
2022/05/24 10:30:09;;;;;;;1.70;1.07;;;28.00;48.50;;;;;;6161859;23;20953;-81
2022/05/24 10:39:08;;;;;;;1.90;1.40;;;32.90;43.40;;;;;;6157648;23;20379;-80
2022/05/24 10:41:50;;;;;;;6.23;2.10;;;33.60;41.70;;;;;;6143921;23;20418;-81
2022/05/24 10:44:22;;;;;;;1.83;1.33;;;34.10;40.80;;;;;;6160298;23;20391;-81
2022/05/24 10:46:57;;;;;;;1.23;0.93;;;34.50;39.30;;;;;;6170552;23;20421;-81
2022/05/24 10:49:32;;;;;;;1.27;0.73;;;32.30;39.00;;;;;;6178845;23;20394;-80
2022/05/24 10:52:03;;;;;;;2.50;1.00;;;32.00;40.80;;;;;;6176324;23;20393;-81
2022/05/24 10:54:37;;;;;;;3.30;1.60;;;32.40;40.20;;;;;;6165391;23;20395;-80
2022/05/24 10:57:10;;;;;;;1.50;0.90;;;32.60;39.80;;;;;;6167653;23;20422;-82
2022/05/24 10:59:45;;;;;;;1.67;0.73;;;32.50;40.40;;;;;;6166373;23;20395;-81
2022/05/24 11:02:21;;;;;;;1.70;1.00;;;33.90;39.30;;;;;;6169695;23;20418;-81
2022/05/24 11:04:53;;;;;;;1.97;1.07;;;34.70;36.70;;;;;;6169222;23;20391;-82
2022/05/24 11:07:21;;;;;;;2.70;1.00;;;35.00;36.70;;;;;;6167753;23;20732;-82
2022/05/24 11:09:56;;;;;;;3.00;1.30;;;35.30;35.90;;;;;;6167467;23;20885;-82
2022/05/24 11:12:27;;;;;;;1.20;0.87;;;35.10;35.70;;;;;;6164247;23;20765;-82
2022/05/24 11:15:00;;;;;;;1.10;0.67;;;35.40;36.00;;;;;;6163475;23;20489;-81
2022/05/24 11:17:27;;;;;;;1.13;0.60;;;36.30;35.40;;;;;;6163058;23;20391;-81
2022/05/24 11:19:56;;;;;;;2.50;0.80;;;36.40;34.60;;;;;;6166452;23;20409;-81
2022/05/24 11:22:29;;;;;;;2.23;0.90;;;36.90;34.60;;;;;;6168045;23;20470;-81
2022/05/24 11:25:03;;;;;;;1.27;0.77;;;36.10;33.80;;;;;;6169718;23;20430;-81
2022/05/24 11:27:33;;;;;;;3.63;1.07;;;34.30;35.70;;;;;;6175046;23;20425;-80
2022/05/24 11:30:09;;;;;;;2.47;0.90;;;32.90;37.40;;;;;;6177350;23;20398;-81
2022/05/24 11:32:40;;;;;;;1.57;0.67;;;31.60;39.50;;;;;;6165766;23;20395;-81
2022/05/24 11:35:11;;;;;;;1.57;0.80;;;32.70;38.80;;;;;;6161551;23;20503;-82
2022/05/24 11:37:41;;;;;;;1.77;0.90;;;32.20;38.20;;;;;;6160332;23;20402;-81
2022/05/24 11:40:33;;;;;;;2.73;0.60;;;33.10;37.50;;;;;;6159381;23;20402;-80
2022/05/24 11:43:02;;;;;;;2.33;1.20;;;33.40;36.50;;;;;;6166328;23;20407;-81
2022/05/24 11:45:59;;;;;;;2.43;1.60;;;34.20;36.00;;;;;;6161037;23;20439;-83
2022/05/24 11:48:46;;;;;;;1.90;1.20;;;32.40;37.70;;;;;;6158552;23;20870;-81
2022/05/24 11:51:41;;;;;;;2.20;1.10;;;30.50;39.70;;;;;;6158189;23;20414;-81
2022/05/24 11:54:28;;;;;;;2.67;1.03;;;29.90;41.50;;;;;;6156691;23;20418;-81
2022/05/24 11:57:17;;;;;;;2.90;0.90;;;29.00;42.50;;;;;;6161111;23;20429;-80
2022/05/24 11:59:52;;;;;;;1.70;0.83;;;30.00;42.20;;;;;;6159560;23;20402;-81
2022/05/24 12:08:26;;;;;;;2.37;1.33;;;32.60;38.10;;;;;;6158851;23;20418;-80
2022/05/24 12:10:55;;;;;;;5.00;2.90;;;30.80;39.90;;;;;;6159242;23;20391;-81
2022/05/24 12:13:51;;;;;;;4.20;1.80;;;28.90;42.10;;;;;;6159622;23;20411;-81
2022/05/24 12:17:09;;;;;;;4.93;2.27;;;27.70;43.70;;;;;;6171258;23;20414;-80
2022/05/24 12:19:52;;;;;;;2.33;1.90;;;26.60;46.30;;;;;;6045008;23;20401;-82
2022/05/24 12:22:21;;;;;;;2.73;1.80;;;26.10;48.40;;;;;;6164464;23;20937;-81
2022/05/24 12:24:54;;;;;;;1.77;1.40;;;25.70;48.10;;;;;;6159343;23;20409;-81
2022/05/24 12:27:50;;;;;;;2.03;1.30;;;25.60;47.90;;;;;;6159143;23;20446;-81
2022/05/24 12:30:35;;;;;;;2.57;0.93;;;25.30;48.50;;;;;;6153664;23;20421;-80
2022/05/24 12:33:11;;;;;;;1.20;0.70;;;23.80;50.40;;;;;;6159911;23;20380;-80
2022/05/24 12:35:39;;;;;;;2.80;0.90;;;23.60;51.10;;;;;;6159828;23;20432;-81
2022/05/24 12:38:17;;;;;;;1.37;0.70;;;22.80;51.30;;;;;;6158985;23;20412;-80
2022/05/24 12:40:44;;;;;;;2.50;1.00;;;23.10;52.90;;;;;;6157906;23;20402;-80
2022/05/24 12:43:17;;;;;;;2.10;0.93;;;24.10;51.20;;;;;;6158379;23;20430;-81
2022/05/24 12:45:47;;;;;;;2.63;1.03;;;25.30;49.50;;;;;;6158933;23;20473;-82
2022/05/24 12:48:32;;;;;;;2.50;0.83;;;25.20;47.80;;;;;;6157839;23;20907;-80
2022/05/24 12:51:02;;;;;;;1.93;0.73;;;25.20;48.70;;;;;;6157702;23;20383;-80
2022/05/24 12:53:29;;;;;;;2.47;1.00;;;25.30;46.90;;;;;;6159799;23;21057;-80
2022/05/24 12:55:59;;;;;;;1.87;1.20;;;24.60;47.50;;;;;;6159838;23;20434;-80
2022/05/24 12:58:29;;;;;;;2.03;0.83;;;24.90;49.70;;;;;;6157938;23;20419;-80
2022/05/24 13:01:13;;;;;;;5.20;1.30;;;26.80;46.80;;;;;;6157010;23;20715;-80
2022/05/24 13:03:47;;;;;;;2.20;1.10;;;27.70;45.10;;;;;;6157710;23;20475;-80
2022/05/24 13:06:22;;;;;;;2.13;1.30;;;27.20;45.00;;;;;;6157956;23;20893;-80
2022/05/24 13:09:04;;;;;;;1.93;0.80;;;28.30;43.90;;;;;;6160754;23;20389;-82
2022/05/24 13:11:31;;;;;;;3.13;1.47;;;28.90;43.40;;;;;;6161987;23;20458;-80
2022/05/24 13:13:58;;;;;;;1.77;1.17;;;27.70;43.80;;;;;;6159968;23;20497;-80
2022/05/24 13:16:25;;;;;;;2.77;1.30;;;26.90;45.30;;;;;;6163540;23;20423;-80
2022/05/24 13:18:52;;;;;;;2.67;1.20;;;26.20;46.20;;;;;;6163554;23;20408;-81
2022/05/24 13:21:25;;;;;;;4.03;1.80;;;25.60;47.60;;;;;;6159934;23;20414;-81
2022/05/24 13:24:08;;;;;;;2.57;1.97;;;24.80;49.30;;;;;;6157902;23;20405;-81
2022/05/24 13:26:35;;;;;;;2.80;1.83;;;24.30;50.50;;;;;;6157424;23;20442;-81
2022/05/24 13:29:21;;;;;;;3.37;1.10;;;23.90;50.60;;;;;;6157739;23;20426;-81
2022/05/24 13:34:35;;;;;;;2.17;1.27;;;23.70;51.50;;;;;;6158521;23;20395;-81
2022/05/24 13:37:06;;;;;;;4.53;1.20;;;24.00;51.70;;;;;;6158121;23;20502;-81
2022/05/24 13:39:49;;;;;;;1.60;1.10;;;26.40;49.70;;;;;;6155368;23;20408;-81
2022/05/24 13:42:24;;;;;;;2.77;0.93;;;29.70;44.60;;;;;;6154701;23;20397;-81
2022/05/24 13:45:08;;;;;;;1.80;0.83;;;31.40;41.40;;;;;;6161755;23;20421;-82
2022/05/24 13:47:37;;;;;;;1.30;0.80;;;32.80;39.70;;;;;;6166413;23;20434;-79
2022/05/24 13:50:22;;;;;;;2.23;0.90;;;33.90;38.30;;;;;;6163243;23;20901;-79
2022/05/24 13:52:59;;;;;;;1.40;0.70;;;34.90;35.80;;;;;;6169000;23;20374;-80
2022/05/24 13:55:28;;;;;;;2.00;0.97;;;33.20;36.30;;;;;;6162865;23;20491;-79
2022/05/24 13:57:59;;;;;;;3.33;1.03;;;32.40;38.30;;;;;;6165815;23;20430;-80
2022/05/24 14:00:43;;;;;;;1.30;0.90;;;30.40;39.30;;;;;;6159222;23;20430;-79
2022/05/24 14:03:25;;;;;;;3.87;1.10;;;28.70;41.10;;;;;;6156085;23;20417;-79
2022/05/24 14:06:03;;;;;;;3.00;1.27;;;27.20;43.80;;;;;;6157913;23;20453;-79
2022/05/24 14:08:32;;;;;;;4.70;1.00;;;26.50;44.40;;;;;;6157131;23;20448;-79
2022/05/24 14:10:59;;;;;;;3.60;2.23;;;25.80;45.90;;;;;;6157488;23;20403;-79
2022/05/24 14:13:26;;;;;;;10.80;6.47;;;25.30;47.10;;;;;;6158184;23;20470;-79
2022/05/24 14:15:53;;;;;;;7.33;2.40;;;25.40;47.50;;;;;;6157409;23;20427;-79
2022/05/24 14:18:20;;;;;;;4.47;2.63;;;26.90;45.20;;;;;;6158140;23;20407;-80
2022/05/24 14:20:47;;;;;;;3.67;2.70;;;28.10;42.80;;;;;;6175427;23;20470;-79
2022/05/24 14:23:18;;;;;;;1.67;1.37;;;28.70;41.80;;;;;;6168579;23;20411;-79
2022/05/24 14:25:47;;;;;;;2.47;2.17;;;27.90;43.40;;;;;;6159445;23;20447;-80
2022/05/24 14:28:14;;;;;;;3.00;1.50;;;26.70;45.90;;;;;;6157815;23;20974;-80
2022/05/24 14:30:41;;;;;;;2.63;1.57;;;25.80;48.00;;;;;;6156949;23;20407;-80
2022/05/24 14:33:11;;;;;;;2.03;1.20;;;25.20;49.70;;;;;;6157325;23;20407;-80
2022/05/24 14:35:37;;;;;;;1.33;0.80;;;25.20;50.30;;;;;;6159591;23;20419;-80